Terminal Aerodrome Forecast
Issued by NWS Wilmington, OH

Current Version | Previous Version | Graphics & Text | Print | Product List | Glossary On
Versions: 1 2 3 4 5 6 7 8 9 10 11 12 13 14 15 16 17 18 19 20 21 22 23 24 25
838
FTUS41 KILN 051133
TAFCVG
TAF
KCVG 051133Z 0512/0618 27006KT P6SM OVC012
     FM051300 20004KT P6SM BKN015
     FM051800 VRB03KT P6SM SCT015 BKN250
     FM052100 11004KT P6SM BKN250
     FM060200 10008KT P6SM BKN080
     FM061000 09008KT P6SM -RA BKN025
     FM061400 VRB03KT 4SM -RA OVC008=

USA.gov is the U.S. government's official web portal to all federal, state and local government web resources and services.